WetterOnline ( http://www.wetteronline.de )

Wetter aktuell Bonn

Aktuelles Wetter: Roleber (162m)

6-stündlich | Neueste Meldungen
Ortszeit Temperatur Wetter
Mi, 25.04. 20:00 13.2° C leicht bewölkt
Mi, 25.04. 14:00 14.9° C bewölkt
Mi, 25.04. 8:00 13.1° C bedeckt
Mi, 25.04. 2:00 13.3° C bewölkt
Di, 24.04. 20:00 15.7° C bewölkt
Di, 24.04. 14:00 16.8° C bedeckt
Di, 24.04. 8:00 9.3° C bedeckt
Di, 24.04. 2:00 10.3° C leicht bewölkt
Ortszeit Temperatur Wetter
Mi, 25.04. 20:00 13.2° C leicht bewölkt
Mi, 25.04. 19:50 13.2° C leicht bewölkt
Mi, 25.04. 19:40 13.5° C leicht bewölkt
Mi, 25.04. 19:30 14.6° C wolkig
Mi, 25.04. 19:20 14.6° C wolkig
Mi, 25.04. 19:10 15.3° C bewölkt
Mi, 25.04. 19:00 15.3° C bewölkt
Mi, 25.04. 18:30 15.1° C wolkig
Mi, 25.04. 18:00 15.3° C bewölkt
Mi, 25.04. 17:30 15.8° C fast wolkenlos
Mi, 25.04. 17:00 15.1° C leicht bewölkt
Ortszeit Relative Feuchte Sichtweite
Mi, 25.04. 20:00 58% 50 km
Mi, 25.04. 14:00 66% 28 km
Mi, 25.04. 8:00 76% 26 km
Mi, 25.04. 2:00 70% 35 km
Di, 24.04. 20:00 70% 35 km
Di, 24.04. 14:00 60% 45 km
Di, 24.04. 8:00 80% 30 km
Di, 24.04. 2:00 79% 40 km
Ortszeit Relative Feuchte Sichtweite
Mi, 25.04. 20:00 58% 50 km
Mi, 25.04. 19:50 58% -
Mi, 25.04. 19:40 57% -
Mi, 25.04. 19:30 52% 45 km
Mi, 25.04. 19:20 52% -
Mi, 25.04. 19:10 52% -
Mi, 25.04. 19:00 50% 40 km
Mi, 25.04. 18:30 50% 55 km
Mi, 25.04. 18:00 52% 45 km
Mi, 25.04. 17:30 55% 30 km
Mi, 25.04. 17:00 55% 35 km
Ortszeit Niederschlagsmenge Niederschlagsart
Mi, 25.04. 20:00 1 l/m2 in 12 Std. -
Mi, 25.04. 14:00 1 l/m2 in 6 Std. Regen
Mi, 25.04. 8:00 0.0 l/m2 in 12 Std. -
Mi, 25.04. 2:00 0.0 l/m2 in 6 Std. -
Di, 24.04. 20:00 0.0 l/m2 in 12 Std. -
Di, 24.04. 14:00 0.0 l/m2 in 6 Std. -
Di, 24.04. 8:00 0.0 l/m2 in 12 Std. -
Di, 24.04. 2:00 0.0 l/m2 in 6 Std. -
Ortszeit Niederschlagsmenge Niederschlagsart
Mi, 25.04. 20:00 0.0 l/m2 in 1 Std. -
Mi, 25.04. 19:50 keine Meldung -
Mi, 25.04. 19:40 keine Meldung -
Mi, 25.04. 19:30 0.0 l/m2 in 1 Std. -
Mi, 25.04. 19:20 keine Meldung -
Mi, 25.04. 19:10 keine Meldung -
Mi, 25.04. 19:00 0.0 l/m2 in 1 Std. -
Mi, 25.04. 18:30 0.0 l/m2 in 1 Std. -
Mi, 25.04. 18:00 0.0 l/m2 in 1 Std. -
Mi, 25.04. 17:30 0.0 l/m2 in 1 Std. -
Mi, 25.04. 17:00 0.0 l/m2 in 1 Std. -
Ortszeit Stärke Spitze Richtung
km/h Bft. km/h Grad Sektor
Mi, 25.04. 20:00 9 2 46 290° W
Mi, 25.04. 14:00 17 3 43 300° NW
Mi, 25.04. 8:00 7 2 29 220° SW
Mi, 25.04. 2:00 15 3 22 210° SW
Di, 24.04. 20:00 4 1 25 330° NW
Di, 24.04. 14:00 13 3 24 200° S
Di, 24.04. 8:00 7 2 20 230° SW
Di, 24.04. 2:00 6 1 26 280° W
Ortszeit Stärke Spitze Richtung
km/h Bft. km/h Grad Sektor
Mi, 25.04. 20:00 9 2 30 290° W
Mi, 25.04. 19:50 9 2 - 290° W
Mi, 25.04. 19:40 9 2 - 290° W
Mi, 25.04. 19:30 14 3 29 300° NW
Mi, 25.04. 19:20 14 3 - 300° NW
Mi, 25.04. 19:10 13 3 - 290° W
Mi, 25.04. 19:00 11 2 40 290° W
Mi, 25.04. 18:30 13 3 41 280° W
Mi, 25.04. 18:00 18 3 32 290° W
Mi, 25.04. 17:30 13 3 31 300° NW
Mi, 25.04. 17:00 19 3 46 300° NW
Ortszeit Untergrenze Bedeckung Gattung
total tief tief mittel hoch
Mi, 25.04. 20:00 2400 m 2/8 2/8 - - -
Mi, 25.04. 14:00 1170 m 7/8 7/8 - - -
Mi, 25.04. 8:00 720 m 8/8 8/8 - - -
Mi, 25.04. 2:00 3300 m 8/8 7/8 - - -
Di, 24.04. 20:00 1500 m 8/8 5/8 - - -
Di, 24.04. 14:00 1080 m 8/8 8/8 - - -
Di, 24.04. 8:00 6300 m 8/8 8/8 - - -
Di, 24.04. 2:00 2700 m 3/8 - - - -
Ortszeit Bedeckungsgrad in Achtel und Wolkenuntergrenze
Mi, 25.04. 20:00 2(2400m)
Mi, 25.04. 19:50 2(2400m)
Mi, 25.04. 19:40 4(2400m)
Mi, 25.04. 19:30 6(2100m)
Mi, 25.04. 19:20 6(2100m)
Mi, 25.04. 19:10 7(2100m)
Mi, 25.04. 19:00 7(2100m)
Mi, 25.04. 18:30 5(2100m) 6(2400m)
Mi, 25.04. 18:00 7(2400m)
Mi, 25.04. 17:30 3(2400m)
Mi, 25.04. 17:00 2(1380m) 3(2400m)
Ortszeit Luftdruck NN (hPa) Tendenz (hPa in 3 Std.)
Mi, 25.04. 20:00 1012 - 0,3
Mi, 25.04. 14:00 1012 + 0,5
Mi, 25.04. 8:00 1010 + 0,4
Mi, 25.04. 2:00 1011 - 1,9
Di, 24.04. 20:00 1014 - 1,4
Di, 24.04. 14:00 1017 - 0,9
Di, 24.04. 8:00 1018 + 0,2
Di, 24.04. 2:00 1019 + 0,8
Ortszeit Luftdruck NN (hPa) Tendenz (hPa in 3 Std.)
Mi, 25.04. 20:00 1012 - 0,3
Mi, 25.04. 19:50 1012 keine Meldung
Mi, 25.04. 19:40 1012 keine Meldung
Mi, 25.04. 19:30 1012 - 0,3
Mi, 25.04. 19:20 1012 keine Meldung
Mi, 25.04. 19:10 1012 keine Meldung
Mi, 25.04. 19:00 1012 - 0,4
Mi, 25.04. 18:30 1012 - 0,5
Mi, 25.04. 18:00 1012 - 0,3
Mi, 25.04. 17:30 1012 + 0,2
Mi, 25.04. 17:00 1013 + 0,4
Ortszeit Schneehöhe (cm)
Mi, 25.04. 20:00 0
Mi, 25.04. 14:00 0
Mi, 25.04. 8:00 0
Mi, 25.04. 2:00 0
Di, 24.04. 20:00 0
Di, 24.04. 14:00 0
Di, 24.04. 8:00 0
Di, 24.04. 2:00 0
Ortszeit Schneehöhe (cm)
Mi, 25.04. 20:00 0
Mi, 25.04. 19:50 0
Mi, 25.04. 19:40 0
Mi, 25.04. 19:30 0
Mi, 25.04. 19:20 0
Mi, 25.04. 19:10 0
Mi, 25.04. 19:00 0
Mi, 25.04. 18:30 0
Mi, 25.04. 18:00 0
Mi, 25.04. 17:30 0
Mi, 25.04. 17:00 0
Link zu dieser Seite / Seite empfehlen

Das Wetter in ...